createdAt,value
2018-06-09T00:00:02.091Z,0
2018-06-09T00:01:02.052Z,0
2018-06-09T00:02:01.836Z,0
2018-06-09T00:03:02.030Z,0
2018-06-09T00:04:02.072Z,0
2018-06-09T00:05:01.805Z,0
2018-06-09T00:06:02.093Z,0
2018-06-09T00:07:02.115Z,0
2018-06-09T00:08:02.061Z,0
2018-06-09T00:09:02.025Z,0
2018-06-09T00:10:02.015Z,0
2018-06-09T00:11:02.058Z,0
2018-06-09T00:12:02.050Z,0
2018-06-09T00:13:01.814Z,0
2018-06-09T00:14:01.753Z,0
2018-06-09T00:15:02.049Z,0
2018-06-09T00:16:01.993Z,0
2018-06-09T00:17:01.531Z,0
2018-06-09T00:18:01.489Z,0
2018-06-09T00:19:02.050Z,0
2018-06-09T00:20:01.772Z,0
2018-06-09T00:21:02.031Z,0
2018-06-09T00:22:01.995Z,0
2018-06-09T00:23:02.054Z,0
2018-06-09T00:24:02.017Z,0
2018-06-09T00:25:01.993Z,0
2018-06-09T00:26:01.724Z,0
2018-06-09T00:27:01.757Z,0
2018-06-09T00:28:01.748Z,0
2018-06-09T00:29:01.777Z,0
2018-06-09T00:30:01.724Z,0
2018-06-09T00:31:02.019Z,0
2018-06-09T00:32:01.957Z,0
2018-06-09T00:33:01.744Z,0
2018-06-09T00:34:01.956Z,0
2018-06-09T00:35:02.021Z,0
2018-06-09T00:36:02.221Z,0
2018-06-09T00:37:01.734Z,0
2018-06-09T00:38:01.688Z,0
2018-06-09T00:39:01.707Z,0
2018-06-09T00:40:01.709Z,0
2018-06-09T00:41:01.978Z,0
2018-06-09T00:42:01.987Z,0
2018-06-09T00:43:01.689Z,0
2018-06-09T00:44:01.732Z,0
2018-06-09T00:45:01.937Z,0
2018-06-09T00:46:01.980Z,0
2018-06-09T00:47:01.933Z,0
2018-06-09T00:48:01.941Z,0
2018-06-09T00:49:01.967Z,0
2018-06-09T00:50:01.925Z,0
2018-06-09T00:51:01.971Z,0
2018-06-09T00:52:01.429Z,0
2018-06-09T00:53:01.983Z,0
2018-06-09T00:54:01.901Z,0
2018-06-09T00:55:01.911Z,0
2018-06-09T00:56:01.686Z,0
2018-06-09T00:57:01.696Z,0
2018-06-09T00:58:01.940Z,0
2018-06-09T00:59:01.653Z,0
2018-06-09T01:00:01.913Z,0
2018-06-09T01:01:01.876Z,0
2018-06-09T01:02:01.935Z,0
2018-06-09T01:03:01.900Z,0
2018-06-09T01:04:01.930Z,0
2018-06-09T01:05:01.636Z,0
2018-06-09T01:06:01.407Z,0
2018-06-09T01:07:01.861Z,0
2018-06-09T01:08:01.907Z,0
2018-06-09T01:09:01.881Z,0
2018-06-09T01:10:01.932Z,0
2018-06-09T01:11:01.633Z,0
2018-06-09T01:12:01.372Z,0
2018-06-09T01:13:01.867Z,0
2018-06-09T01:14:01.645Z,0
2018-06-09T01:15:01.884Z,0
2018-06-09T01:16:01.873Z,0
2018-06-09T01:17:01.833Z,0
2018-06-09T01:18:01.889Z,0
2018-06-09T01:19:01.845Z,0
2018-06-09T01:20:01.627Z,0
2018-06-09T01:21:01.833Z,0
2018-06-09T01:22:01.374Z,0
2018-06-09T01:23:01.823Z,0
2018-06-09T01:24:01.845Z,0
2018-06-09T01:25:01.820Z,0
2018-06-09T01:26:01.862Z,0
2018-06-09T01:27:01.829Z,0
2018-06-09T01:28:01.826Z,0
2018-06-09T01:29:01.863Z,0
2018-06-09T01:30:01.815Z,0
2018-06-09T01:31:01.806Z,0
2018-06-09T01:32:01.561Z,0
2018-06-09T01:33:01.790Z,0
2018-06-09T01:34:01.583Z,0
2018-06-09T01:35:01.548Z,0
2018-06-09T01:36:01.841Z,0
2018-06-09T01:37:01.796Z,0
2018-06-09T01:38:01.829Z,0
2018-06-09T01:39:01.532Z,0
2018-06-09T01:40:01.538Z,0
2018-06-09T01:41:01.816Z,0
2018-06-09T01:42:01.759Z,0
2018-06-09T01:43:01.783Z,0
2018-06-09T01:44:01.525Z,0
2018-06-09T01:45:01.796Z,0
2018-06-09T01:46:01.799Z,0
2018-06-09T01:47:01.765Z,0
2018-06-09T01:48:01.785Z,0
2018-06-09T01:49:01.749Z,0
2018-06-09T01:50:01.785Z,0
2018-06-09T01:51:01.236Z,0
2018-06-09T01:52:01.787Z,0
2018-06-09T01:53:01.733Z,0
2018-06-09T01:54:01.540Z,0
2018-06-09T01:55:01.212Z,0
2018-06-09T01:56:01.759Z,0
2018-06-09T01:57:01.716Z,0
2018-06-09T01:58:01.764Z,0
2018-06-09T01:59:01.739Z,0
2018-06-09T02:00:01.726Z,0
2018-06-09T02:01:01.714Z,0
2018-06-09T02:02:01.703Z,0
2018-06-09T02:03:01.469Z,0
2018-06-09T02:04:01.727Z,0
2018-06-09T02:05:01.702Z,0
2018-06-09T02:06:01.758Z,0
2018-06-09T02:07:01.447Z,0
2018-06-09T02:08:01.732Z,0
2018-06-09T02:09:01.685Z,0
2018-06-09T02:10:01.717Z,0
2018-06-09T02:11:01.665Z,0
2018-06-09T02:12:01.435Z,0
2018-06-09T02:13:01.673Z,0
2018-06-09T02:14:01.727Z,0
2018-06-09T02:15:01.694Z,0
2018-06-09T02:16:01.677Z,0
2018-06-09T02:17:01.651Z,0
2018-06-09T02:18:01.638Z,0
2018-06-09T02:19:01.425Z,0
2018-06-09T02:20:01.458Z,0
2018-06-09T02:21:01.698Z,0
2018-06-09T02:22:01.624Z,0
2018-06-09T02:23:01.668Z,0
2018-06-09T02:24:01.614Z,0
2018-06-09T02:25:01.658Z,0
2018-06-09T02:26:01.616Z,5
2018-06-09T02:27:01.414Z,5
2018-06-09T02:28:01.383Z,5
2018-06-09T02:29:01.651Z,5
2018-06-09T02:30:01.385Z,5
2018-06-09T02:31:01.385Z,5
2018-06-09T02:32:01.639Z,5
2018-06-09T02:33:01.358Z,5
2018-06-09T02:34:01.340Z,5
2018-06-09T02:35:01.625Z,5
2018-06-09T02:36:01.359Z,5
2018-06-09T02:37:01.647Z,5
2018-06-09T02:38:01.578Z,5
2018-06-09T02:39:01.620Z,5
2018-06-09T02:40:01.600Z,5
2018-06-09T02:41:01.356Z,5
2018-06-09T02:42:01.329Z,5
2018-06-09T02:43:01.627Z,10
2018-06-09T02:44:01.592Z,10
2018-06-09T02:45:01.344Z,10
2018-06-09T02:46:01.288Z,10
2018-06-09T02:47:01.562Z,10
2018-06-09T02:48:01.576Z,10
2018-06-09T02:49:01.595Z,15
2018-06-09T02:50:01.085Z,15
2018-06-09T02:51:01.047Z,15
2018-06-09T02:52:01.305Z,15
2018-06-09T02:53:01.519Z,15
2018-06-09T02:54:01.630Z,20
2018-06-09T02:55:01.280Z,20
2018-06-09T02:56:01.542Z,20
2018-06-09T02:57:01.561Z,25
2018-06-09T02:58:01.504Z,25
2018-06-09T02:59:01.316Z,25
2018-06-09T03:00:01.529Z,30
2018-06-09T03:01:01.031Z,30
2018-06-09T03:02:01.239Z,30
2018-06-09T03:03:01.254Z,35
2018-06-09T03:04:01.258Z,35
2018-06-09T03:05:01.558Z,40
2018-06-09T03:06:01.538Z,40
2018-06-09T03:07:01.492Z,45
2018-06-09T03:08:01.497Z,45
2018-06-09T03:09:01.466Z,45
2018-06-09T03:10:01.521Z,45
2018-06-09T03:11:01.488Z,50
2018-06-09T03:12:01.523Z,50
2018-06-09T03:13:01.469Z,55
2018-06-09T03:14:01.508Z,55
2018-06-09T03:15:01.447Z,60
2018-06-09T03:16:01.225Z,60
2018-06-09T03:17:01.208Z,60
2018-06-09T03:18:01.505Z,65
2018-06-09T03:19:01.473Z,65
2018-06-09T03:20:01.470Z,70
2018-06-09T03:21:01.437Z,75
2018-06-09T03:22:01.473Z,80
2018-06-09T03:23:01.175Z,80
2018-06-09T03:24:01.462Z,90
2018-06-09T03:25:00.901Z,90
2018-06-09T03:26:00.958Z,95
2018-06-09T03:27:01.425Z,95
2018-06-09T03:28:01.460Z,105
2018-06-09T03:29:01.412Z,110
2018-06-09T03:30:01.451Z,120
2018-06-09T03:31:01.388Z,120
2018-06-09T03:32:01.429Z,125
2018-06-09T03:33:01.399Z,125
2018-06-09T03:34:01.444Z,130
2018-06-09T03:35:00.908Z,135
2018-06-09T03:36:01.409Z,140
2018-06-09T03:37:01.389Z,140
2018-06-09T03:38:01.385Z,145
2018-06-09T03:39:01.164Z,150
2018-06-09T03:40:01.155Z,150
2018-06-09T03:41:00.917Z,155
2018-06-09T03:42:00.865Z,165
2018-06-09T03:43:01.407Z,165
2018-06-09T03:44:01.363Z,170
2018-06-09T03:45:01.406Z,170
2018-06-09T03:46:01.356Z,175
2018-06-09T03:47:01.392Z,180
2018-06-09T03:48:01.386Z,185
2018-06-09T03:49:01.579Z,190
2018-06-09T03:50:01.411Z,195
2018-06-09T03:51:00.630Z,200
2018-06-09T03:52:00.869Z,205
2018-06-09T03:53:01.359Z,210
2018-06-09T03:54:01.351Z,220
2018-06-09T03:55:01.381Z,225
2018-06-09T03:56:01.124Z,225
2018-06-09T03:57:01.412Z,225
2018-06-09T03:58:01.089Z,230
2018-06-09T03:59:00.884Z,235
2018-06-09T04:00:01.337Z,235
2018-06-09T04:01:01.131Z,240
2018-06-09T04:02:00.844Z,250
2018-06-09T04:03:01.403Z,255
2018-06-09T04:04:01.114Z,260
2018-06-09T04:05:01.404Z,265
2018-06-09T04:06:01.343Z,275
2018-06-09T04:07:01.375Z,280
2018-06-09T04:08:01.586Z,290
2018-06-09T04:09:00.939Z,300
2018-06-09T04:10:01.404Z,305
2018-06-09T04:11:01.375Z,310
2018-06-09T04:12:00.627Z,305
2018-06-09T04:13:01.145Z,305
2018-06-09T04:14:01.369Z,320
2018-06-09T04:15:01.157Z,325
2018-06-09T04:16:01.371Z,340
2018-06-09T04:17:01.163Z,350
2018-06-09T04:18:01.372Z,365
2018-06-09T04:19:01.176Z,360
2018-06-09T04:20:01.147Z,355
2018-06-09T04:21:01.427Z,360
2018-06-09T04:22:01.126Z,365
2018-06-09T04:23:01.180Z,370
2018-06-09T04:24:01.432Z,395
2018-06-09T04:25:01.438Z,410
2018-06-09T04:26:01.452Z,400
2018-06-09T04:27:01.423Z,395
2018-06-09T04:28:00.921Z,430
2018-06-09T04:29:01.414Z,445
2018-06-09T04:30:01.476Z,450
2018-06-09T04:31:01.195Z,455
2018-06-09T04:32:01.487Z,455
2018-06-09T04:33:01.462Z,465
2018-06-09T04:34:01.459Z,470
2018-06-09T04:35:01.192Z,470
2018-06-09T04:36:01.224Z,485
2018-06-09T04:37:01.216Z,485
2018-06-09T04:38:01.517Z,490
2018-06-09T04:39:00.971Z,500
2018-06-09T04:40:01.960Z,510
2018-06-09T04:41:01.265Z,520
2018-06-09T04:42:01.542Z,525
2018-06-09T04:43:01.271Z,525
2018-06-09T04:44:01.267Z,540
2018-06-09T04:45:01.503Z,540
2018-06-09T04:46:01.721Z,540
2018-06-09T04:47:01.539Z,545
2018-06-09T04:48:01.588Z,550
2018-06-09T04:49:01.544Z,560
2018-06-09T04:50:01.593Z,570
2018-06-09T04:51:01.561Z,570
2018-06-09T04:52:01.580Z,575
2018-06-09T04:53:01.609Z,585
2018-06-09T04:54:01.310Z,620
2018-06-09T04:55:01.599Z,635
2018-06-09T04:56:01.612Z,610
2018-06-09T04:57:01.648Z,605
2018-06-09T04:58:01.656Z,590
2018-06-09T04:59:01.633Z,570
2018-06-09T05:00:01.166Z,555
2018-06-09T05:01:01.389Z,535
2018-06-09T05:02:01.449Z,520
2018-06-09T05:03:01.684Z,525
2018-06-09T05:04:01.698Z,515
2018-06-09T05:05:01.712Z,510
2018-06-09T05:06:01.681Z,540
2018-06-09T05:07:01.767Z,520
2018-06-09T05:08:01.725Z,445
2018-06-09T05:09:01.754Z,545
2018-06-09T05:10:01.753Z,595
2018-06-09T05:11:01.485Z,625
2018-06-09T05:12:01.511Z,640
2018-06-09T05:13:01.998Z,720
2018-06-09T05:14:01.556Z,735
2018-06-09T05:15:01.775Z,735
2018-06-09T05:16:01.538Z,770
2018-06-09T05:17:01.780Z,770
2018-06-09T05:18:01.854Z,755
2018-06-09T05:19:01.818Z,765
2018-06-09T05:20:01.863Z,795
2018-06-09T05:21:01.828Z,820
2018-06-09T05:22:01.624Z,835
2018-06-09T05:26:01.626Z,885
2018-06-09T05:27:01.939Z,900
2018-06-09T05:28:01.708Z,890
2018-06-09T05:29:01.966Z,870
2018-06-09T05:30:01.925Z,900
2018-06-09T05:31:01.978Z,935
2018-06-09T05:32:01.444Z,960
2018-06-09T05:33:04.512Z,995
2018-06-09T05:34:01.962Z,995
2018-06-09T05:35:01.988Z,1010
2018-06-09T05:36:01.713Z,1010
2018-06-09T05:37:01.785Z,1015
2018-06-09T05:46:02.096Z,1115
2018-06-09T05:47:02.159Z,1105
2018-06-09T05:48:04.667Z,1130
2018-06-09T05:49:01.639Z,1120
2018-06-09T05:51:01.630Z,1125
2018-06-09T05:52:02.211Z,1135
2018-06-09T05:53:05.983Z,1175
2018-06-09T05:54:02.224Z,1190
2018-06-09T05:55:01.988Z,1225
2018-06-09T05:56:01.963Z,1220
2018-06-09T05:57:01.991Z,1235
2018-06-09T05:58:01.966Z,1195
2018-06-09T05:59:01.780Z,1115
2018-06-09T06:00:02.272Z,1100
2018-06-09T06:01:04.828Z,1085
2018-06-09T06:02:02.318Z,1075
2018-06-09T06:03:02.421Z,1145
2018-06-09T06:04:01.930Z,1115
2018-06-09T06:05:02.340Z,1145
2018-06-09T06:06:02.104Z,1130
2018-06-09T06:07:02.404Z,1205
2018-06-09T06:08:02.388Z,1255
2018-06-09T06:09:02.419Z,1230
2018-06-09T06:10:05.955Z,1225
2018-06-09T06:11:02.469Z,1265
2018-06-09T06:12:04.999Z,1310
2018-06-09T06:13:16.860Z,1190
2018-06-09T06:14:02.509Z,1060
2018-06-09T06:15:02.452Z,1225
2018-06-09T06:16:02.510Z,1335
2018-06-09T06:18:02.520Z,1380
2018-06-09T06:19:02.319Z,1405
2018-06-09T06:20:02.306Z,1305
2018-06-09T06:21:03.187Z,1415
2018-06-09T06:22:06.444Z,1425
2018-06-09T06:23:02.319Z,1395
2018-06-09T06:24:02.627Z,1365
2018-06-09T06:25:02.598Z,1350
2018-06-09T06:26:02.430Z,1315
2018-06-09T06:27:02.658Z,1330
2018-06-09T06:28:02.434Z,1350
2018-06-09T06:29:02.146Z,1340
2018-06-09T06:30:02.435Z,1430
2018-06-09T06:31:02.469Z,1450
2018-06-09T06:32:02.991Z,1450
2018-06-09T06:33:02.777Z,1475
2018-06-09T06:34:02.753Z,1520
2018-06-09T06:35:02.531Z,1620
2018-06-09T06:36:02.812Z,1585
2018-06-09T06:37:02.535Z,1445
2018-06-09T06:38:02.834Z,1460
2018-06-09T06:39:02.312Z,1440
2018-06-09T06:40:02.640Z,1480
2018-06-09T06:41:02.856Z,1555
2018-06-09T06:42:02.929Z,1630
2018-06-09T06:43:02.913Z,1650
2018-06-09T06:44:02.633Z,1615
2018-06-09T06:45:03.142Z,1600
2018-06-09T06:46:02.460Z,1585
2018-06-09T06:47:02.976Z,1535
2018-06-09T06:48:02.764Z,1670
2018-06-09T06:49:02.982Z,1510
2018-06-09T06:50:04.058Z,1420
2018-06-09T06:52:03.100Z,1650
2018-06-09T06:53:03.093Z,1690
2018-06-09T06:54:03.116Z,1730
2018-06-09T06:55:02.860Z,1495
2018-06-09T06:56:03.130Z,1555
2018-06-09T06:57:02.650Z,1550
2018-06-09T06:58:02.675Z,1520
2018-06-09T06:59:03.224Z,1635
2018-06-09T07:00:02.944Z,1695
2018-06-09T07:01:03.239Z,1525
2018-06-09T07:02:03.116Z,1460
2018-06-09T07:03:03.013Z,1745
2018-06-09T07:04:02.797Z,1765
2018-06-09T07:05:03.272Z,1715
2018-06-09T07:06:03.321Z,1705
2018-06-09T07:07:03.339Z,1550
2018-06-09T07:08:03.340Z,1350
2018-06-09T07:09:03.395Z,1565
2018-06-09T07:10:03.406Z,1690
2018-06-09T07:11:03.152Z,1555
2018-06-09T07:12:02.908Z,1605
2018-06-09T07:13:03.222Z,1595
2018-06-09T07:14:03.214Z,1580
2018-06-09T07:15:03.530Z,1685
2018-06-09T07:16:03.223Z,1710
2018-06-09T07:17:03.293Z,1700
2018-06-09T07:18:03.263Z,1670
2018-06-09T07:19:03.579Z,1645
2018-06-09T07:20:03.049Z,1700
2018-06-09T07:21:03.378Z,1720
2018-06-09T07:22:03.408Z,1715
2018-06-09T07:23:03.401Z,1850
2018-06-09T07:24:03.630Z,2005
2018-06-09T07:25:03.418Z,2020
2018-06-09T07:26:03.687Z,2035
2018-06-09T07:27:03.744Z,2005
2018-06-09T07:28:03.203Z,1950
2018-06-09T07:30:03.796Z,1935
2018-06-09T07:31:03.820Z,1860
2018-06-09T07:32:03.536Z,1890
2018-06-09T07:33:03.871Z,1935
2018-06-09T07:34:03.564Z,1935
2018-06-09T07:35:03.940Z,1955
2018-06-09T07:36:03.870Z,1995
2018-06-09T07:37:03.948Z,2075
2018-06-09T07:38:03.674Z,2050
2018-06-09T07:39:03.957Z,1930
2018-06-09T07:40:03.696Z,1995
2018-06-09T07:41:03.721Z,2055
2018-06-09T07:42:03.756Z,1780
2018-06-09T07:43:04.026Z,1830
2018-06-09T07:44:03.565Z,1775
2018-06-09T07:45:03.776Z,1710
2018-06-09T07:46:04.083Z,1735
2018-06-09T07:47:03.555Z,1895
2018-06-09T07:48:04.167Z,2065
2018-06-09T07:49:03.884Z,1920
2018-06-09T07:50:03.929Z,1865
2018-06-09T07:51:03.918Z,1865
2018-06-09T07:52:03.700Z,1895
2018-06-09T07:53:04.182Z,1955
2018-06-09T07:54:04.023Z,1990
2018-06-09T07:55:03.989Z,2025
2018-06-09T07:56:04.293Z,2075
2018-06-09T07:57:03.748Z,2120
2018-06-09T07:58:04.316Z,2095
2018-06-09T07:59:04.065Z,2140
2018-06-09T08:00:04.372Z,2220
2018-06-09T08:01:04.082Z,2215
2018-06-09T08:02:04.393Z,2180
2018-06-09T08:03:04.128Z,2320
2018-06-09T08:04:03.673Z,2320
2018-06-09T08:05:04.164Z,2390
2018-06-09T08:06:04.490Z,2250
2018-06-09T08:07:04.311Z,2130
2018-06-09T08:08:04.295Z,2275
2018-06-09T08:09:04.234Z,2635
2018-06-09T08:10:04.525Z,2965
2018-06-09T08:11:04.042Z,3040
2018-06-09T08:12:04.093Z,3095
2018-06-09T08:13:05.634Z,3080
2018-06-09T08:14:04.801Z,3100
2018-06-09T08:15:04.645Z,3010
2018-06-09T08:16:04.116Z,2955
2018-06-09T08:17:04.433Z,2910
2018-06-09T08:18:04.676Z,2805
2018-06-09T08:19:04.491Z,2870
2018-06-09T08:20:04.485Z,2770
2018-06-09T08:21:04.747Z,2350
2018-06-09T08:22:04.556Z,2155
2018-06-09T08:23:04.551Z,2145
2018-06-09T08:24:04.561Z,2125
2018-06-09T08:25:04.821Z,2115
2018-06-09T08:26:04.591Z,2095
2018-06-09T08:27:04.121Z,2065
2018-06-09T08:28:04.644Z,2070
2018-06-09T08:29:04.751Z,2085
2018-06-09T08:30:04.666Z,2040
2018-06-09T08:31:04.971Z,2125
2018-06-09T08:32:04.731Z,2130
2018-06-09T08:33:04.987Z,2135
2018-06-09T08:34:05.040Z,2115
2018-06-09T08:35:05.023Z,2135
2018-06-09T08:36:05.035Z,2140
2018-06-09T08:37:04.823Z,2165
2018-06-09T08:38:04.612Z,2180
2018-06-09T08:39:05.129Z,2175
2018-06-09T08:40:04.886Z,2170
2018-06-09T08:41:05.155Z,2175
2018-06-09T08:42:05.139Z,2160
2018-06-09T08:43:05.231Z,2130
2018-06-09T08:44:04.722Z,2115
2018-06-09T08:45:05.223Z,2090
2018-06-09T08:46:05.022Z,2085
2018-06-09T08:47:05.283Z,2095
2018-06-09T08:48:04.807Z,2105
2018-06-09T08:49:04.796Z,2120
2018-06-09T08:50:05.100Z,2130
2018-06-09T08:51:05.328Z,2150
2018-06-09T08:52:05.112Z,2150
2018-06-09T08:53:05.370Z,2175
2018-06-09T08:54:04.922Z,2205
2018-06-09T08:55:05.447Z,2075
2018-06-09T08:56:05.439Z,1220
2018-06-09T08:57:05.493Z,455
2018-06-09T08:58:05.469Z,410
2018-06-09T08:59:05.510Z,425
2018-06-09T09:00:05.263Z,455
2018-06-09T09:01:05.562Z,510
2018-06-09T09:02:05.541Z,545
2018-06-09T09:03:05.614Z,620
2018-06-09T09:04:05.551Z,660
2018-06-09T09:05:05.615Z,695
2018-06-09T09:06:05.323Z,710
2018-06-09T09:07:05.658Z,705
2018-06-09T09:08:05.618Z,685
2018-06-09T09:09:05.407Z,675
2018-06-09T09:10:05.413Z,690
2018-06-09T09:11:05.427Z,715
2018-06-09T09:12:05.439Z,740
2018-06-09T09:13:05.433Z,780
2018-06-09T09:14:05.430Z,805
2018-06-09T09:15:05.731Z,815
2018-06-09T09:16:05.466Z,820
2018-06-09T09:17:05.770Z,825
2018-06-09T09:18:05.714Z,835
2018-06-09T09:19:05.512Z,850
2018-06-09T09:20:05.779Z,865
2018-06-09T09:21:05.792Z,870
2018-06-09T09:22:05.512Z,900
2018-06-09T09:23:05.569Z,910
2018-06-09T09:24:05.814Z,925
2018-06-09T09:25:05.578Z,920
2018-06-09T09:26:05.883Z,900
2018-06-09T09:27:05.596Z,880
2018-06-09T09:28:05.838Z,860
2018-06-09T09:29:05.364Z,840
2018-06-09T09:30:05.898Z,825
2018-06-09T09:31:05.862Z,815
2018-06-09T09:32:05.934Z,820
2018-06-09T09:33:05.610Z,825
2018-06-09T09:34:05.933Z,825
2018-06-09T09:35:05.663Z,825
2018-06-09T09:36:05.921Z,825
2018-06-09T09:37:05.705Z,825
2018-06-09T09:38:05.953Z,820
2018-06-09T09:39:05.469Z,795
2018-06-09T09:40:05.988Z,780
2018-06-09T09:41:05.744Z,765
2018-06-09T09:42:05.708Z,745
2018-06-09T09:43:05.733Z,710
2018-06-09T09:44:05.749Z,690
2018-06-09T09:45:05.270Z,680
2018-06-09T09:46:05.533Z,690
2018-06-09T09:47:05.770Z,705
2018-06-09T09:48:06.057Z,710
2018-06-09T09:49:05.765Z,690
2018-06-09T09:50:06.104Z,640
2018-06-09T09:51:05.813Z,590
2018-06-09T09:52:07.114Z,535
2018-06-09T09:53:06.090Z,515
2018-06-09T09:54:05.860Z,515
2018-06-09T09:55:06.208Z,535
2018-06-09T09:56:06.105Z,560
2018-06-09T09:57:06.123Z,580
2018-06-09T09:58:05.636Z,600
2018-06-09T09:59:05.656Z,610
2018-06-09T10:00:05.647Z,610
2018-06-09T10:01:05.910Z,595
2018-06-09T10:02:05.939Z,600
2018-06-09T10:03:06.152Z,580
2018-06-09T10:04:06.196Z,560
2018-06-09T10:05:05.658Z,550
2018-06-09T10:06:05.972Z,545
2018-06-09T10:07:05.943Z,555
2018-06-09T10:08:05.992Z,560
2018-06-09T10:09:06.230Z,570
2018-06-09T10:10:06.263Z,590
2018-06-09T10:11:06.454Z,600
2018-06-09T10:12:06.253Z,595
2018-06-09T10:13:06.263Z,595
2018-06-09T10:14:06.028Z,610
2018-06-09T10:15:06.052Z,630
2018-06-09T10:16:06.041Z,640
2018-06-09T10:17:06.333Z,660
2018-06-09T10:18:06.056Z,660
2018-06-09T10:19:06.100Z,650
2018-06-09T10:20:05.291Z,635
2018-06-09T10:21:06.097Z,620
2018-06-09T10:22:06.077Z,610
2018-06-09T10:23:06.115Z,605
2018-06-09T10:24:06.078Z,575
2018-06-09T10:25:05.855Z,560
2018-06-09T10:26:05.840Z,550
2018-06-09T10:27:06.401Z,545
2018-06-09T10:28:06.376Z,535
2018-06-09T10:29:06.140Z,535
2018-06-09T10:30:06.168Z,535
2018-06-09T10:31:08.672Z,515
2018-06-09T10:32:06.408Z,505
2018-06-09T10:33:06.181Z,480
2018-06-09T10:34:06.403Z,450
2018-06-09T10:35:06.475Z,430
2018-06-09T10:36:06.175Z,430
2018-06-09T10:37:06.502Z,430
2018-06-09T10:38:06.215Z,430
2018-06-09T10:39:06.487Z,420
2018-06-09T10:40:06.196Z,430
2018-06-09T10:41:05.969Z,425
2018-06-09T10:42:05.996Z,425
2018-06-09T10:43:06.520Z,415
2018-06-09T10:44:06.286Z,405
2018-06-09T10:45:05.990Z,395
2018-06-09T10:46:06.019Z,390
2018-06-09T10:47:06.250Z,370
2018-06-09T10:48:06.315Z,365
2018-06-09T10:49:06.313Z,360
2018-06-09T10:50:06.327Z,360
2018-06-09T10:51:06.544Z,355
2018-06-09T10:52:06.331Z,345
2018-06-09T10:53:06.309Z,340
2018-06-09T10:54:06.589Z,345
2018-06-09T10:55:06.377Z,365
2018-06-09T10:56:06.082Z,390
2018-06-09T10:57:06.082Z,420
2018-06-09T10:58:06.610Z,435
2018-06-09T10:59:06.668Z,420
2018-06-09T11:00:06.400Z,420
2018-06-09T11:01:06.620Z,425
2018-06-09T11:02:06.952Z,420
2018-06-09T11:03:06.650Z,415
2018-06-09T11:04:06.688Z,385
2018-06-09T11:05:06.701Z,360
2018-06-09T11:06:06.460Z,360
2018-06-09T11:07:06.406Z,370
2018-06-09T11:08:06.763Z,395
2018-06-09T11:09:06.393Z,425
2018-06-09T11:10:06.564Z,455
2018-06-09T11:11:06.672Z,480
2018-06-09T11:12:06.492Z,500
2018-06-09T11:13:06.764Z,495
2018-06-09T11:14:06.497Z,495
2018-06-09T11:15:06.488Z,490
2018-06-09T11:16:06.454Z,495
2018-06-09T11:17:06.501Z,495
2018-06-09T11:18:06.486Z,495
2018-06-09T11:19:06.741Z,485
2018-06-09T11:20:06.541Z,480
2018-06-09T11:21:06.250Z,505
2018-06-09T11:22:06.540Z,540
2018-06-09T11:23:06.543Z,585
2018-06-09T11:24:06.293Z,595
2018-06-09T11:25:06.247Z,570
2018-06-09T11:26:06.805Z,520
2018-06-09T11:27:06.527Z,475
2018-06-09T11:28:06.582Z,460
2018-06-09T11:29:06.570Z,445
2018-06-09T11:30:06.564Z,450
2018-06-09T11:31:06.826Z,480
2018-06-09T11:32:06.829Z,495
2018-06-09T11:33:06.613Z,510
2018-06-09T11:34:06.889Z,545
2018-06-09T11:35:06.644Z,560
2018-06-09T11:36:06.330Z,580
2018-06-09T11:37:06.893Z,580
2018-06-09T11:38:06.846Z,585
2018-06-09T11:39:06.653Z,555
2018-06-09T11:40:06.369Z,535
2018-06-09T11:41:06.932Z,520
2018-06-09T11:42:06.396Z,525
2018-06-09T11:43:07.141Z,525
2018-06-09T11:44:06.657Z,535
2018-06-09T11:45:06.976Z,550
2018-06-09T11:46:06.423Z,560
2018-06-09T11:47:06.785Z,580
2018-06-09T11:48:06.979Z,590
2018-06-09T11:49:06.713Z,590
2018-06-09T11:50:06.456Z,565
2018-06-09T11:51:06.753Z,545
2018-06-09T11:52:06.716Z,545
2018-06-09T11:53:07.010Z,555
2018-06-09T11:54:06.729Z,540
2018-06-09T11:55:06.764Z,505
2018-06-09T11:56:06.753Z,465
2018-06-09T11:57:07.051Z,425
2018-06-09T11:58:06.526Z,395
2018-06-09T11:59:06.780Z,365
2018-06-09T12:00:06.822Z,345
2018-06-09T12:01:07.073Z,330
2018-06-09T12:02:06.865Z,335
2018-06-09T12:03:06.569Z,350
2018-06-09T12:04:06.849Z,360
2018-06-09T12:05:06.599Z,375
2018-06-09T12:06:07.121Z,390
2018-06-09T12:07:06.892Z,390
2018-06-09T12:08:06.852Z,385
2018-06-09T12:09:06.897Z,405
2018-06-09T12:10:06.626Z,435
2018-06-09T12:11:06.735Z,465
2018-06-09T12:12:07.180Z,480
2018-06-09T12:13:07.135Z,490
2018-06-09T12:14:06.898Z,490
2018-06-09T12:15:06.894Z,485
2018-06-09T12:16:07.203Z,480
2018-06-09T12:17:06.683Z,455
2018-06-09T12:18:06.679Z,440
2018-06-09T12:19:06.943Z,450
2018-06-09T12:20:06.944Z,455
2018-06-09T12:21:07.232Z,470
2018-06-09T12:22:07.237Z,480
2018-06-09T12:23:06.514Z,485
2018-06-09T12:24:07.216Z,490
2018-06-09T12:25:06.846Z,490
2018-06-09T12:26:07.276Z,495
2018-06-09T12:27:07.321Z,485
2018-06-09T12:28:06.768Z,480
2018-06-09T12:29:06.806Z,485
2018-06-09T12:30:07.031Z,485
2018-06-09T12:31:07.299Z,500
2018-06-09T12:32:07.272Z,510
2018-06-09T12:33:07.101Z,500
2018-06-09T12:34:07.302Z,490
2018-06-09T12:35:07.078Z,475
2018-06-09T12:36:07.045Z,460
2018-06-09T12:37:07.084Z,450
2018-06-09T12:38:06.832Z,445
2018-06-09T12:39:07.380Z,455
2018-06-09T12:40:07.357Z,460
2018-06-09T12:41:07.384Z,445
2018-06-09T12:42:06.828Z,420
2018-06-09T12:43:06.650Z,410
2018-06-09T12:44:07.371Z,410
2018-06-09T12:45:07.178Z,415
2018-06-09T12:46:07.150Z,430
2018-06-09T12:47:06.921Z,445
2018-06-09T12:48:07.151Z,445
2018-06-09T12:49:07.480Z,430
2018-06-09T12:50:07.452Z,410
2018-06-09T12:51:07.247Z,385
2018-06-09T12:52:07.223Z,365
2018-06-09T12:53:07.182Z,345
2018-06-09T12:54:07.217Z,345
2018-06-09T12:55:07.193Z,345
2018-06-09T12:56:07.514Z,350
2018-06-09T12:57:07.478Z,360
2018-06-09T12:58:07.260Z,365
2018-06-09T12:59:07.484Z,365
2018-06-09T13:00:07.272Z,355
2018-06-09T13:01:07.267Z,355
2018-06-09T13:02:07.528Z,370
2018-06-09T13:03:07.551Z,385
2018-06-09T13:04:07.256Z,395
2018-06-09T13:05:07.561Z,405
2018-06-09T13:06:07.564Z,410
2018-06-09T13:07:07.582Z,430
2018-06-09T13:08:07.586Z,445
2018-06-09T13:09:07.047Z,455
2018-06-09T13:10:07.365Z,435
2018-06-09T13:11:07.564Z,405
2018-06-09T13:12:07.616Z,385
2018-06-09T13:13:07.331Z,375
2018-06-09T13:14:07.297Z,360
2018-06-09T13:15:07.597Z,370
2018-06-09T13:16:07.401Z,375
2018-06-09T13:17:07.617Z,365
2018-06-09T13:18:07.638Z,350
2018-06-09T13:19:07.107Z,335
2018-06-09T13:20:07.159Z,330
2018-06-09T13:21:07.721Z,315
2018-06-09T13:22:07.661Z,310
2018-06-09T13:23:07.676Z,305
2018-06-09T13:24:07.840Z,310
2018-06-09T13:25:07.436Z,325
2018-06-09T13:26:07.682Z,340
2018-06-09T13:27:07.425Z,360
2018-06-09T13:28:07.479Z,380
2018-06-09T13:29:07.704Z,375
2018-06-09T13:30:07.739Z,365
2018-06-09T13:31:07.448Z,345
2018-06-09T13:32:07.752Z,330
2018-06-09T13:33:07.444Z,320
2018-06-09T13:34:07.850Z,320
2018-06-09T13:35:07.485Z,315
2018-06-09T13:36:07.486Z,315
2018-06-09T13:37:07.789Z,320
2018-06-09T13:38:07.772Z,330
2018-06-09T13:39:07.761Z,340
2018-06-09T13:40:07.565Z,330
2018-06-09T13:41:07.793Z,310
2018-06-09T13:42:07.921Z,295
2018-06-09T13:43:07.515Z,285
2018-06-09T13:44:07.629Z,275
2018-06-09T13:45:07.547Z,270
2018-06-09T13:46:08.066Z,270
2018-06-09T13:47:07.563Z,270
2018-06-09T13:48:07.862Z,270
2018-06-09T13:49:07.504Z,270
2018-06-09T13:50:07.846Z,270
2018-06-09T13:51:07.595Z,275
2018-06-09T13:52:07.672Z,275
2018-06-09T13:53:07.854Z,275
2018-06-09T13:54:07.902Z,275
2018-06-09T13:55:07.636Z,270
2018-06-09T13:56:07.651Z,270
2018-06-09T13:57:07.636Z,265
2018-06-09T13:58:07.917Z,265
2018-06-09T13:59:07.615Z,265
2018-06-09T14:00:07.679Z,265
2018-06-09T14:01:07.914Z,265
2018-06-09T14:02:07.964Z,260
2018-06-09T14:03:07.667Z,265
2018-06-09T14:04:07.956Z,270
2018-06-09T14:05:07.408Z,280
2018-06-09T14:06:08.022Z,285
2018-06-09T14:07:07.707Z,285